sensor_id;sensor_type;location;lat;lon;timestamp;temperature;humidity
5868;DHT22;2960;49.142;7.768;2024-02-14T00:00:11;5.70;62.10
5868;DHT22;2960;49.142;7.768;2024-02-14T00:02:40;5.70;62.10
5868;DHT22;2960;49.142;7.768;2024-02-14T00:05:07;5.70;62.10
5868;DHT22;2960;49.142;7.768;2024-02-14T00:07:36;5.70;62.20
5868;DHT22;2960;49.142;7.768;2024-02-14T00:10:04;5.80;62.30
5868;DHT22;2960;49.142;7.768;2024-02-14T00:12:32;5.80;62.30
5868;DHT22;2960;49.142;7.768;2024-02-14T00:15:00;5.80;62.40
5868;DHT22;2960;49.142;7.768;2024-02-14T00:17:30;5.80;62.50
5868;DHT22;2960;49.142;7.768;2024-02-14T00:19:57;5.80;62.50
5868;DHT22;2960;49.142;7.768;2024-02-14T00:22:24;5.80;62.60
5868;DHT22;2960;49.142;7.768;2024-02-14T00:24:51;5.80;63.40
5868;DHT22;2960;49.142;7.768;2024-02-14T00:27:21;6.00;62.90
5868;DHT22;2960;49.142;7.768;2024-02-14T00:29:50;5.90;62.70
5868;DHT22;2960;49.142;7.768;2024-02-14T00:32:17;5.80;62.70
5868;DHT22;2960;49.142;7.768;2024-02-14T00:34:45;5.80;62.90
5868;DHT22;2960;49.142;7.768;2024-02-14T00:37:13;5.90;62.90
5868;DHT22;2960;49.142;7.768;2024-02-14T00:39:40;5.90;62.90
5868;DHT22;2960;49.142;7.768;2024-02-14T00:42:07;5.90;62.90
5868;DHT22;2960;49.142;7.768;2024-02-14T00:44:34;5.90;63.00
5868;DHT22;2960;49.142;7.768;2024-02-14T00:47:01;5.90;63.80
5868;DHT22;2960;49.142;7.768;2024-02-14T00:49:29;5.80;63.00
5868;DHT22;2960;49.142;7.768;2024-02-14T00:51:58;5.90;63.20
5868;DHT22;2960;49.142;7.768;2024-02-14T00:54:25;5.80;63.10
5868;DHT22;2960;49.142;7.768;2024-02-14T00:56:53;6.00;63.30
5868;DHT22;2960;49.142;7.768;2024-02-14T00:59:20;5.90;63.20
5868;DHT22;2960;49.142;7.768;2024-02-14T01:01:47;5.90;63.30
5868;DHT22;2960;49.142;7.768;2024-02-14T01:04:14;5.80;63.20
5868;DHT22;2960;49.142;7.768;2024-02-14T01:06:42;5.80;63.20
5868;DHT22;2960;49.142;7.768;2024-02-14T01:09:10;5.80;63.30
5868;DHT22;2960;49.142;7.768;2024-02-14T01:11:37;5.80;63.30
5868;DHT22;2960;49.142;7.768;2024-02-14T01:14:04;5.80;63.30
5868;DHT22;2960;49.142;7.768;2024-02-14T01:16:32;5.80;63.40
5868;DHT22;2960;49.142;7.768;2024-02-14T01:18:59;5.80;63.40
5868;DHT22;2960;49.142;7.768;2024-02-14T01:21:26;5.80;63.50
5868;DHT22;2960;49.142;7.768;2024-02-14T01:23:53;5.80;64.20
5868;DHT22;2960;49.142;7.768;2024-02-14T01:26:21;5.70;63.40
5868;DHT22;2960;49.142;7.768;2024-02-14T01:28:48;5.70;63.40
5868;DHT22;2960;49.142;7.768;2024-02-14T01:31:15;5.70;63.40
5868;DHT22;2960;49.142;7.768;2024-02-14T01:33:42;5.60;63.50
5868;DHT22;2960;49.142;7.768;2024-02-14T01:36:11;5.60;63.60
5868;DHT22;2960;49.142;7.768;2024-02-14T01:38:38;5.60;63.50
5868;DHT22;2960;49.142;7.768;2024-02-14T01:41:05;5.60;63.60
5868;DHT22;2960;49.142;7.768;2024-02-14T01:43:34;5.60;63.70
5868;DHT22;2960;49.142;7.768;2024-02-14T01:46:05;5.50;63.70
5868;DHT22;2960;49.142;7.768;2024-02-14T01:48:34;5.60;63.80
5868;DHT22;2960;49.142;7.768;2024-02-14T01:51:03;5.50;63.70
5868;DHT22;2960;49.142;7.768;2024-02-14T01:53:32;5.50;63.80
5868;DHT22;2960;49.142;7.768;2024-02-14T01:55:59;5.50;63.80
5868;DHT22;2960;49.142;7.768;2024-02-14T01:58:27;5.50;63.90
5868;DHT22;2960;49.142;7.768;2024-02-14T02:00:56;5.50;64.00
5868;DHT22;2960;49.142;7.768;2024-02-14T02:03:24;5.50;64.10
5868;DHT22;2960;49.142;7.768;2024-02-14T02:05:52;5.50;64.10
5868;DHT22;2960;49.142;7.768;2024-02-14T02:08:20;5.50;64.10
5868;DHT22;2960;49.142;7.768;2024-02-14T02:10:48;5.50;64.30
5868;DHT22;2960;49.142;7.768;2024-02-14T02:13:15;5.50;64.30
5868;DHT22;2960;49.142;7.768;2024-02-14T02:15:42;5.50;64.30
5868;DHT22;2960;49.142;7.768;2024-02-14T02:18:12;5.50;64.30
5868;DHT22;2960;49.142;7.768;2024-02-14T02:20:40;5.50;64.40
5868;DHT22;2960;49.142;7.768;2024-02-14T02:23:11;5.50;64.40
5868;DHT22;2960;49.142;7.768;2024-02-14T02:25:40;5.50;64.60
5868;DHT22;2960;49.142;7.768;2024-02-14T02:28:08;5.50;64.60
5868;DHT22;2960;49.142;7.768;2024-02-14T02:30:36;5.60;65.50
5868;DHT22;2960;49.142;7.768;2024-02-14T02:33:03;5.50;64.70
5868;DHT22;2960;49.142;7.768;2024-02-14T02:35:32;5.60;64.80
5868;DHT22;2960;49.142;7.768;2024-02-14T02:38:00;5.60;65.00
5868;DHT22;2960;49.142;7.768;2024-02-14T02:40:28;5.60;65.10
5868;DHT22;2960;49.142;7.768;2024-02-14T02:42:56;5.60;65.10
5868;DHT22;2960;49.142;7.768;2024-02-14T02:45:24;5.60;65.10
5868;DHT22;2960;49.142;7.768;2024-02-14T02:47:51;5.60;65.90
5868;DHT22;2960;49.142;7.768;2024-02-14T02:50:19;5.60;65.20
5868;DHT22;2960;49.142;7.768;2024-02-14T02:52:47;5.60;65.20
5868;DHT22;2960;49.142;7.768;2024-02-14T02:55:14;5.60;65.20
5868;DHT22;2960;49.142;7.768;2024-02-14T02:57:44;5.60;65.20
5868;DHT22;2960;49.142;7.768;2024-02-14T03:00:12;5.70;65.40
5868;DHT22;2960;49.142;7.768;2024-02-14T03:02:41;5.70;65.50
5868;DHT22;2960;49.142;7.768;2024-02-14T03:05:10;5.70;65.50
5868;DHT22;2960;49.142;7.768;2024-02-14T03:07:43;5.70;65.50
5868;DHT22;2960;49.142;7.768;2024-02-14T03:10:12;5.70;65.60
5868;DHT22;2960;49.142;7.768;2024-02-14T03:12:40;5.80;65.70
5868;DHT22;2960;49.142;7.768;2024-02-14T03:15:09;5.80;65.70
5868;DHT22;2960;49.142;7.768;2024-02-14T03:17:39;5.80;65.80
5868;DHT22;2960;49.142;7.768;2024-02-14T03:20:07;5.80;65.80
5868;DHT22;2960;49.142;7.768;2024-02-14T03:22:38;5.80;65.90
5868;DHT22;2960;49.142;7.768;2024-02-14T03:25:12;5.80;66.00
5868;DHT22;2960;49.142;7.768;2024-02-14T03:27:41;5.80;66.00
5868;DHT22;2960;49.142;7.768;2024-02-14T03:30:13;5.80;66.00
5868;DHT22;2960;49.142;7.768;2024-02-14T03:32:41;5.80;66.10
5868;DHT22;2960;49.142;7.768;2024-02-14T03:35:09;5.90;66.30
5868;DHT22;2960;49.142;7.768;2024-02-14T03:37:38;5.90;66.30
5868;DHT22;2960;49.142;7.768;2024-02-14T03:40:07;5.90;66.30
5868;DHT22;2960;49.142;7.768;2024-02-14T03:42:35;5.90;66.50
5868;DHT22;2960;49.142;7.768;2024-02-14T03:45:06;5.90;66.40
5868;DHT22;2960;49.142;7.768;2024-02-14T03:47:35;5.90;66.50
5868;DHT22;2960;49.142;7.768;2024-02-14T03:50:06;5.90;66.50
5868;DHT22;2960;49.142;7.768;2024-02-14T03:52:34;5.90;66.60
5868;DHT22;2960;49.142;7.768;2024-02-14T03:55:01;5.90;66.60
5868;DHT22;2960;49.142;7.768;2024-02-14T03:57:28;5.90;66.70
5868;DHT22;2960;49.142;7.768;2024-02-14T03:59:55;6.00;66.80
5868;DHT22;2960;49.142;7.768;2024-02-14T04:02:24;6.00;66.90
5868;DHT22;2960;49.142;7.768;2024-02-14T04:04:54;6.10;67.00
5868;DHT22;2960;49.142;7.768;2024-02-14T04:07:21;6.00;66.90
5868;DHT22;2960;49.142;7.768;2024-02-14T04:09:49;6.00;67.00
5868;DHT22;2960;49.142;7.768;2024-02-14T04:12:17;6.00;67.00
5868;DHT22;2960;49.142;7.768;2024-02-14T04:14:44;6.00;67.00
5868;DHT22;2960;49.142;7.768;2024-02-14T04:17:11;6.00;67.00
5868;DHT22;2960;49.142;7.768;2024-02-14T04:19:39;6.10;67.10
5868;DHT22;2960;49.142;7.768;2024-02-14T04:22:08;6.10;67.20
5868;DHT22;2960;49.142;7.768;2024-02-14T04:24:35;6.10;67.10
5868;DHT22;2960;49.142;7.768;2024-02-14T04:27:02;6.10;67.30
5868;DHT22;2960;49.142;7.768;2024-02-14T04:29:30;6.10;67.30
5868;DHT22;2960;49.142;7.768;2024-02-14T04:31:58;6.10;67.30
5868;DHT22;2960;49.142;7.768;2024-02-14T04:34:26;6.10;67.40
5868;DHT22;2960;49.142;7.768;2024-02-14T04:36:53;6.20;67.60
5868;DHT22;2960;49.142;7.768;2024-02-14T04:39:22;6.20;67.50
5868;DHT22;2960;49.142;7.768;2024-02-14T04:41:50;6.20;67.60
5868;DHT22;2960;49.142;7.768;2024-02-14T04:44:18;6.20;67.60
5868;DHT22;2960;49.142;7.768;2024-02-14T04:46:45;6.20;67.70
5868;DHT22;2960;49.142;7.768;2024-02-14T04:49:14;6.20;67.80
5868;DHT22;2960;49.142;7.768;2024-02-14T04:51:42;6.30;67.90
5868;DHT22;2960;49.142;7.768;2024-02-14T04:54:10;6.20;68.00
5868;DHT22;2960;49.142;7.768;2024-02-14T04:56:40;6.20;68.00
5868;DHT22;2960;49.142;7.768;2024-02-14T04:59:08;6.20;68.20
5868;DHT22;2960;49.142;7.768;2024-02-14T05:01:35;6.20;68.30
5868;DHT22;2960;49.142;7.768;2024-02-14T05:04:02;6.30;68.30
5868;DHT22;2960;49.142;7.768;2024-02-14T05:06:29;6.30;68.40
5868;DHT22;2960;49.142;7.768;2024-02-14T05:08:56;6.30;68.50
5868;DHT22;2960;49.142;7.768;2024-02-14T05:11:24;6.30;68.60
5868;DHT22;2960;49.142;7.768;2024-02-14T05:13:52;6.30;69.40
5868;DHT22;2960;49.142;7.768;2024-02-14T05:16:20;6.30;68.70
5868;DHT22;2960;49.142;7.768;2024-02-14T05:18:47;6.30;68.70
5868;DHT22;2960;49.142;7.768;2024-02-14T05:21:15;6.50;68.90
5868;DHT22;2960;49.142;7.768;2024-02-14T05:23:42;6.40;68.80
5868;DHT22;2960;49.142;7.768;2024-02-14T05:26:09;6.50;69.00
5868;DHT22;2960;49.142;7.768;2024-02-14T05:28:36;6.40;69.00
5868;DHT22;2960;49.142;7.768;2024-02-14T05:31:05;6.50;69.10
5868;DHT22;2960;49.142;7.768;2024-02-14T05:33:33;6.40;69.10
5868;DHT22;2960;49.142;7.768;2024-02-14T05:36:00;6.50;69.20
5868;DHT22;2960;49.142;7.768;2024-02-14T05:38:27;6.50;69.20
5868;DHT22;2960;49.142;7.768;2024-02-14T05:40:55;6.50;69.20
5868;DHT22;2960;49.142;7.768;2024-02-14T05:43:22;6.50;69.20
5868;DHT22;2960;49.142;7.768;2024-02-14T05:45:49;6.50;69.30
5868;DHT22;2960;49.142;7.768;2024-02-14T05:48:19;6.50;69.40
5868;DHT22;2960;49.142;7.768;2024-02-14T05:50:46;6.50;69.50
5868;DHT22;2960;49.142;7.768;2024-02-14T05:53:13;6.60;69.60
5868;DHT22;2960;49.142;7.768;2024-02-14T05:55:41;6.60;69.70
5868;DHT22;2960;49.142;7.768;2024-02-14T05:58:08;6.60;69.80
5868;DHT22;2960;49.142;7.768;2024-02-14T06:00:35;6.60;69.80
5868;DHT22;2960;49.142;7.768;2024-02-14T06:03:02;6.70;70.00
5868;DHT22;2960;49.142;7.768;2024-02-14T06:05:33;6.70;70.10
5868;DHT22;2960;49.142;7.768;2024-02-14T06:08:00;6.70;70.10
5868;DHT22;2960;49.142;7.768;2024-02-14T06:10:28;6.80;70.30
5868;DHT22;2960;49.142;7.768;2024-02-14T06:12:55;6.80;70.40
5868;DHT22;2960;49.142;7.768;2024-02-14T06:15:23;6.90;70.50
5868;DHT22;2960;49.142;7.768;2024-02-14T06:17:50;6.90;70.60
5868;DHT22;2960;49.142;7.768;2024-02-14T06:20:17;6.90;70.80
5868;DHT22;2960;49.142;7.768;2024-02-14T06:22:46;7.10;71.10
5868;DHT22;2960;49.142;7.768;2024-02-14T06:25:13;7.00;71.00
5868;DHT22;2960;49.142;7.768;2024-02-14T06:27:41;7.10;71.20
5868;DHT22;2960;49.142;7.768;2024-02-14T06:30:12;7.20;71.30
5868;DHT22;2960;49.142;7.768;2024-02-14T06:32:40;7.10;71.30
5868;DHT22;2960;49.142;7.768;2024-02-14T06:35:07;7.10;71.40
5868;DHT22;2960;49.142;7.768;2024-02-14T06:37:34;7.20;71.60
5868;DHT22;2960;49.142;7.768;2024-02-14T06:40:04;7.20;72.40
5868;DHT22;2960;49.142;7.768;2024-02-14T06:42:34;7.20;71.80
5868;DHT22;2960;49.142;7.768;2024-02-14T06:45:01;7.30;72.70
5868;DHT22;2960;49.142;7.768;2024-02-14T06:47:28;7.30;72.30
5868;DHT22;2960;49.142;7.768;2024-02-14T06:49:56;7.40;72.40
5868;DHT22;2960;49.142;7.768;2024-02-14T06:52:23;7.40;72.50
5868;DHT22;2960;49.142;7.768;2024-02-14T06:54:50;7.40;72.60
5868;DHT22;2960;49.142;7.768;2024-02-14T06:57:19;7.40;72.70
5868;DHT22;2960;49.142;7.768;2024-02-14T06:59:46;7.60;73.10
5868;DHT22;2960;49.142;7.768;2024-02-14T07:02:13;7.50;73.00
5868;DHT22;2960;49.142;7.768;2024-02-14T07:04:40;7.50;73.00
5868;DHT22;2960;49.142;7.768;2024-02-14T07:07:07;7.60;73.20
5868;DHT22;2960;49.142;7.768;2024-02-14T07:09:34;7.60;73.30
5868;DHT22;2960;49.142;7.768;2024-02-14T07:12:04;7.60;73.60
5868;DHT22;2960;49.142;7.768;2024-02-14T07:14:33;7.70;73.80
5868;DHT22;2960;49.142;7.768;2024-02-14T07:17:00;7.70;74.00
5868;DHT22;2960;49.142;7.768;2024-02-14T07:19:27;7.70;74.10
5868;DHT22;2960;49.142;7.768;2024-02-14T07:21:58;7.70;74.20
5868;DHT22;2960;49.142;7.768;2024-02-14T07:24:25;7.80;74.40
5868;DHT22;2960;49.142;7.768;2024-02-14T07:26:52;7.80;74.40
5868;DHT22;2960;49.142;7.768;2024-02-14T07:29:19;7.80;74.60
5868;DHT22;2960;49.142;7.768;2024-02-14T07:31:48;7.90;74.80
5868;DHT22;2960;49.142;7.768;2024-02-14T07:34:15;7.90;74.70
5868;DHT22;2960;49.142;7.768;2024-02-14T07:36:42;7.90;74.80
5868;DHT22;2960;49.142;7.768;2024-02-14T07:39:12;8.00;75.00
5868;DHT22;2960;49.142;7.768;2024-02-14T07:41:39;8.00;75.00
5868;DHT22;2960;49.142;7.768;2024-02-14T07:44:06;8.00;75.10
5868;DHT22;2960;49.142;7.768;2024-02-14T07:46:33;8.10;75.20
5868;DHT22;2960;49.142;7.768;2024-02-14T07:49:02;8.10;75.20
5868;DHT22;2960;49.142;7.768;2024-02-14T07:51:30;8.10;75.40
5868;DHT22;2960;49.142;7.768;2024-02-14T07:54:02;8.10;75.40
5868;DHT22;2960;49.142;7.768;2024-02-14T07:56:29;8.20;75.60
5868;DHT22;2960;49.142;7.768;2024-02-14T07:58:56;8.20;75.70
5868;DHT22;2960;49.142;7.768;2024-02-14T08:01:24;8.30;75.80
5868;DHT22;2960;49.142;7.768;2024-02-14T08:03:51;8.40;75.90
5868;DHT22;2960;49.142;7.768;2024-02-14T08:06:20;8.30;76.70
5868;DHT22;2960;49.142;7.768;2024-02-14T08:08:47;8.40;76.00
5868;DHT22;2960;49.142;7.768;2024-02-14T08:11:17;8.40;76.10
5868;DHT22;2960;49.142;7.768;2024-02-14T08:13:44;8.40;76.10
5868;DHT22;2960;49.142;7.768;2024-02-14T08:16:11;8.50;76.30
5868;DHT22;2960;49.142;7.768;2024-02-14T08:18:39;8.50;76.30
5868;DHT22;2960;49.142;7.768;2024-02-14T08:21:09;8.50;76.40
5868;DHT22;2960;49.142;7.768;2024-02-14T08:23:39;8.60;76.50
5868;DHT22;2960;49.142;7.768;2024-02-14T08:26:07;8.60;76.60
5868;DHT22;2960;49.142;7.768;2024-02-14T08:28:36;8.60;76.60
5868;DHT22;2960;49.142;7.768;2024-02-14T08:31:09;8.70;76.70
5868;DHT22;2960;49.142;7.768;2024-02-14T08:33:36;8.70;76.80
5868;DHT22;2960;49.142;7.768;2024-02-14T08:36:04;8.70;76.70
5868;DHT22;2960;49.142;7.768;2024-02-14T08:38:32;8.70;76.90
5868;DHT22;2960;49.142;7.768;2024-02-14T08:41:01;8.80;77.00
5868;DHT22;2960;49.142;7.768;2024-02-14T08:43:29;8.80;77.10
5868;DHT22;2960;49.142;7.768;2024-02-14T08:45:56;8.80;77.10
5868;DHT22;2960;49.142;7.768;2024-02-14T08:48:23;8.80;77.10
5868;DHT22;2960;49.142;7.768;2024-02-14T08:50:52;8.90;77.30
5868;DHT22;2960;49.142;7.768;2024-02-14T08:53:19;8.90;77.30
5868;DHT22;2960;49.142;7.768;2024-02-14T08:55:47;8.90;77.30
5868;DHT22;2960;49.142;7.768;2024-02-14T08:58:16;9.00;77.40
5868;DHT22;2960;49.142;7.768;2024-02-14T09:00:43;9.00;77.60
5868;DHT22;2960;49.142;7.768;2024-02-14T09:03:10;9.00;77.80
5868;DHT22;2960;49.142;7.768;2024-02-14T09:05:37;9.00;77.90
5868;DHT22;2960;49.142;7.768;2024-02-14T09:08:05;9.10;78.10
5868;DHT22;2960;49.142;7.768;2024-02-14T09:10:32;9.10;78.20
5868;DHT22;2960;49.142;7.768;2024-02-14T09:12:59;9.10;79.00
5868;DHT22;2960;49.142;7.768;2024-02-14T09:15:29;9.10;78.30
5868;DHT22;2960;49.142;7.768;2024-02-14T09:17:57;9.10;78.40
5868;DHT22;2960;49.142;7.768;2024-02-14T09:20:25;9.20;78.50
5868;DHT22;2960;49.142;7.768;2024-02-14T09:22:55;9.30;78.60
5868;DHT22;2960;49.142;7.768;2024-02-14T09:25:23;9.20;78.80
5868;DHT22;2960;49.142;7.768;2024-02-14T09:27:50;9.20;78.80
5868;DHT22;2960;49.142;7.768;2024-02-14T09:30:18;9.20;78.90
5868;DHT22;2960;49.142;7.768;2024-02-14T09:32:47;9.20;79.10
5868;DHT22;2960;49.142;7.768;2024-02-14T09:35:16;9.20;79.10
5868;DHT22;2960;49.142;7.768;2024-02-14T09:37:43;9.30;79.40
5868;DHT22;2960;49.142;7.768;2024-02-14T09:40:11;9.40;79.60
5868;DHT22;2960;49.142;7.768;2024-02-14T09:42:43;9.30;79.80
5868;DHT22;2960;49.142;7.768;2024-02-14T09:45:12;9.30;79.90
5868;DHT22;2960;49.142;7.768;2024-02-14T09:47:41;9.40;80.10
5868;DHT22;2960;49.142;7.768;2024-02-14T09:50:12;9.40;80.20
5868;DHT22;2960;49.142;7.768;2024-02-14T09:52:39;9.40;80.20
5868;DHT22;2960;49.142;7.768;2024-02-14T09:55:09;9.40;80.30
5868;DHT22;2960;49.142;7.768;2024-02-14T09:57:42;9.50;80.40
5868;DHT22;2960;49.142;7.768;2024-02-14T10:00:10;9.40;80.40
5868;DHT22;2960;49.142;7.768;2024-02-14T10:02:40;9.50;80.70
5868;DHT22;2960;49.142;7.768;2024-02-14T10:05:08;9.50;80.70
5868;DHT22;2960;49.142;7.768;2024-02-14T10:07:41;9.50;80.80
5868;DHT22;2960;49.142;7.768;2024-02-14T10:10:09;9.50;80.90
5868;DHT22;2960;49.142;7.768;2024-02-14T10:12:37;9.50;81.10
5868;DHT22;2960;49.142;7.768;2024-02-14T10:15:08;9.50;81.20
5868;DHT22;2960;49.142;7.768;2024-02-14T10:17:35;9.60;81.30
5868;DHT22;2960;49.142;7.768;2024-02-14T10:20:03;9.60;81.40
5868;DHT22;2960;49.142;7.768;2024-02-14T10:22:36;9.60;81.60
5868;DHT22;2960;49.142;7.768;2024-02-14T10:25:06;9.60;81.90
5868;DHT22;2960;49.142;7.768;2024-02-14T10:27:35;9.70;82.30
5868;DHT22;2960;49.142;7.768;2024-02-14T10:30:05;9.70;82.30
5868;DHT22;2960;49.142;7.768;2024-02-14T10:32:35;9.70;82.50
5868;DHT22;2960;49.142;7.768;2024-02-14T10:35:04;9.80;82.60
5868;DHT22;2960;49.142;7.768;2024-02-14T10:37:35;9.80;82.70
5868;DHT22;2960;49.142;7.768;2024-02-14T10:40:04;9.80;82.80
5868;DHT22;2960;49.142;7.768;2024-02-14T10:42:32;9.80;83.70
5868;DHT22;2960;49.142;7.768;2024-02-14T10:45:00;9.90;83.90
5868;DHT22;2960;49.142;7.768;2024-02-14T10:47:31;9.90;83.30
5868;DHT22;2960;49.142;7.768;2024-02-14T10:50:04;10.00;82.30
5868;DHT22;2960;49.142;7.768;2024-02-14T10:52:35;10.00;82.50
5868;DHT22;2960;49.142;7.768;2024-02-14T10:55:06;10.00;82.60
5868;DHT22;2960;49.142;7.768;2024-02-14T10:57:34;10.10;82.80
5868;DHT22;2960;49.142;7.768;2024-02-14T11:00:05;10.10;82.90
5868;DHT22;2960;49.142;7.768;2024-02-14T11:02:35;10.20;83.10
5868;DHT22;2960;49.142;7.768;2024-02-14T11:05:04;10.20;83.20
5868;DHT22;2960;49.142;7.768;2024-02-14T11:07:32;10.20;83.20
5868;DHT22;2960;49.142;7.768;2024-02-14T11:10:08;10.30;83.40
5868;DHT22;2960;49.142;7.768;2024-02-14T11:12:37;10.30;83.40
5868;DHT22;2960;49.142;7.768;2024-02-14T11:15:10;10.30;83.60
5868;DHT22;2960;49.142;7.768;2024-02-14T11:17:45;10.40;83.80
5868;DHT22;2960;49.142;7.768;2024-02-14T11:20:16;10.40;83.80
5868;DHT22;2960;49.142;7.768;2024-02-14T11:22:54;10.40;83.80
5868;DHT22;2960;49.142;7.768;2024-02-14T11:25:28;10.50;84.00
5868;DHT22;2960;49.142;7.768;2024-02-14T11:27:57;10.50;84.00
5868;DHT22;2960;49.142;7.768;2024-02-14T11:30:33;10.50;84.10
5868;DHT22;2960;49.142;7.768;2024-02-14T11:33:13;10.50;84.10
5868;DHT22;2960;49.142;7.768;2024-02-14T11:35:46;10.50;84.10
5868;DHT22;2960;49.142;7.768;2024-02-14T11:38:14;10.50;84.30
5868;DHT22;2960;49.142;7.768;2024-02-14T11:40:44;10.50;84.50
5868;DHT22;2960;49.142;7.768;2024-02-14T11:43:12;10.60;84.60
5868;DHT22;2960;49.142;7.768;2024-02-14T11:45:41;10.60;84.80
5868;DHT22;2960;49.142;7.768;2024-02-14T11:48:10;10.60;84.80
5868;DHT22;2960;49.142;7.768;2024-02-14T11:50:39;10.60;85.00
5868;DHT22;2960;49.142;7.768;2024-02-14T11:53:07;10.70;85.20
5868;DHT22;2960;49.142;7.768;2024-02-14T11:55:36;10.70;85.30
5868;DHT22;2960;49.142;7.768;2024-02-14T11:58:08;10.70;85.50
5868;DHT22;2960;49.142;7.768;2024-02-14T12:00:37;10.80;85.60
5868;DHT22;2960;49.142;7.768;2024-02-14T12:03:07;10.80;85.60
5868;DHT22;2960;49.142;7.768;2024-02-14T12:05:37;10.80;85.80
5868;DHT22;2960;49.142;7.768;2024-02-14T12:08:06;10.80;86.10
5868;DHT22;2960;49.142;7.768;2024-02-14T12:10:35;10.90;86.20
5868;DHT22;2960;49.142;7.768;2024-02-14T12:13:11;10.90;86.30
5868;DHT22;2960;49.142;7.768;2024-02-14T12:15:40;11.00;86.30
5868;DHT22;2960;49.142;7.768;2024-02-14T12:18:08;11.00;86.30
5868;DHT22;2960;49.142;7.768;2024-02-14T12:20:36;11.00;86.30
5868;DHT22;2960;49.142;7.768;2024-02-14T12:23:04;11.10;87.30
5868;DHT22;2960;49.142;7.768;2024-02-14T12:25:32;11.10;86.70
5868;DHT22;2960;49.142;7.768;2024-02-14T12:28:00;11.20;87.00
5868;DHT22;2960;49.142;7.768;2024-02-14T12:30:43;11.20;87.10
5868;DHT22;2960;49.142;7.768;2024-02-14T12:33:12;11.20;87.10
5868;DHT22;2960;49.142;7.768;2024-02-14T12:35:43;11.30;87.30
5868;DHT22;2960;49.142;7.768;2024-02-14T12:38:18;11.30;87.40
5868;DHT22;2960;49.142;7.768;2024-02-14T12:40:46;11.30;87.50
5868;DHT22;2960;49.142;7.768;2024-02-14T12:43:15;11.30;87.50
5868;DHT22;2960;49.142;7.768;2024-02-14T12:45:43;11.30;87.70
5868;DHT22;2960;49.142;7.768;2024-02-14T12:48:13;11.30;87.60
5868;DHT22;2960;49.142;7.768;2024-02-14T12:50:41;11.40;87.70
5868;DHT22;2960;49.142;7.768;2024-02-14T12:53:14;11.40;87.80
5868;DHT22;2960;49.142;7.768;2024-02-14T12:55:41;11.30;87.80
5868;DHT22;2960;49.142;7.768;2024-02-14T12:58:08;11.40;88.60
5868;DHT22;2960;49.142;7.768;2024-02-14T13:00:36;11.40;88.20
5868;DHT22;2960;49.142;7.768;2024-02-14T13:03:05;11.40;88.20
5868;DHT22;2960;49.142;7.768;2024-02-14T13:05:32;11.40;88.10
5868;DHT22;2960;49.142;7.768;2024-02-14T13:08:00;11.40;88.80
5868;DHT22;2960;49.142;7.768;2024-02-14T13:10:27;11.40;88.20
5868;DHT22;2960;49.142;7.768;2024-02-14T13:12:54;11.50;88.20
5868;DHT22;2960;49.142;7.768;2024-02-14T13:15:24;11.50;88.20
5868;DHT22;2960;49.142;7.768;2024-02-14T13:17:51;11.50;88.30
5868;DHT22;2960;49.142;7.768;2024-02-14T13:20:20;11.50;88.30
5868;DHT22;2960;49.142;7.768;2024-02-14T13:22:47;11.50;88.40
5868;DHT22;2960;49.142;7.768;2024-02-14T13:25:15;11.50;88.40
5868;DHT22;2960;49.142;7.768;2024-02-14T13:27:45;11.50;88.50
5868;DHT22;2960;49.142;7.768;2024-02-14T13:30:13;11.50;88.60
5868;DHT22;2960;49.142;7.768;2024-02-14T13:32:40;11.50;88.80
5868;DHT22;2960;49.142;7.768;2024-02-14T13:35:08;11.50;88.80
5868;DHT22;2960;49.142;7.768;2024-02-14T13:37:38;11.50;88.80
5868;DHT22;2960;49.142;7.768;2024-02-14T13:40:07;11.50;88.90
5868;DHT22;2960;49.142;7.768;2024-02-14T13:42:36;11.50;89.00
5868;DHT22;2960;49.142;7.768;2024-02-14T13:45:04;11.50;89.10
5868;DHT22;2960;49.142;7.768;2024-02-14T13:47:35;11.50;89.30
5868;DHT22;2960;49.142;7.768;2024-02-14T13:50:04;11.50;89.40
5868;DHT22;2960;49.142;7.768;2024-02-14T13:52:32;11.50;89.50
5868;DHT22;2960;49.142;7.768;2024-02-14T13:55:01;11.50;89.70
5868;DHT22;2960;49.142;7.768;2024-02-14T13:57:30;11.50;89.60
5868;DHT22;2960;49.142;7.768;2024-02-14T13:59:58;11.50;89.80
5868;DHT22;2960;49.142;7.768;2024-02-14T14:02:25;11.50;89.90
5868;DHT22;2960;49.142;7.768;2024-02-14T14:04:52;11.50;90.00
5868;DHT22;2960;49.142;7.768;2024-02-14T14:07:21;11.50;90.00
5868;DHT22;2960;49.142;7.768;2024-02-14T14:09:49;11.50;90.00
5868;DHT22;2960;49.142;7.768;2024-02-14T14:12:18;11.60;90.10
5868;DHT22;2960;49.142;7.768;2024-02-14T14:14:45;11.60;90.10
5868;DHT22;2960;49.142;7.768;2024-02-14T14:17:14;11.60;90.40
5868;DHT22;2960;49.142;7.768;2024-02-14T14:19:41;11.60;90.10
5868;DHT22;2960;49.142;7.768;2024-02-14T14:22:08;11.60;90.10
5868;DHT22;2960;49.142;7.768;2024-02-14T14:24:38;11.70;90.20
5868;DHT22;2960;49.142;7.768;2024-02-14T14:27:07;11.70;90.20
5868;DHT22;2960;49.142;7.768;2024-02-14T14:29:40;11.70;90.20
5868;DHT22;2960;49.142;7.768;2024-02-14T14:32:08;11.70;90.20
5868;DHT22;2960;49.142;7.768;2024-02-14T14:34:36;11.70;90.10
5868;DHT22;2960;49.142;7.768;2024-02-14T14:37:04;11.70;90.10
5868;DHT22;2960;49.142;7.768;2024-02-14T14:39:33;11.70;90.10
5868;DHT22;2960;49.142;7.768;2024-02-14T14:42:00;11.70;90.10
5868;DHT22;2960;49.142;7.768;2024-02-14T14:44:27;11.80;90.20
5868;DHT22;2960;49.142;7.768;2024-02-14T14:46:57;11.80;90.10
5868;DHT22;2960;49.142;7.768;2024-02-14T14:49:25;11.80;90.20
5868;DHT22;2960;49.142;7.768;2024-02-14T14:51:53;11.80;90.60
5868;DHT22;2960;49.142;7.768;2024-02-14T14:54:23;11.80;90.30
5868;DHT22;2960;49.142;7.768;2024-02-14T14:56:54;11.80;90.30
5868;DHT22;2960;49.142;7.768;2024-02-14T14:59:21;11.80;90.60
5868;DHT22;2960;49.142;7.768;2024-02-14T15:01:49;11.80;90.30
5868;DHT22;2960;49.142;7.768;2024-02-14T15:04:17;11.80;90.40
5868;DHT22;2960;49.142;7.768;2024-02-14T15:06:45;11.80;90.30
5868;DHT22;2960;49.142;7.768;2024-02-14T15:09:13;11.80;90.70
5868;DHT22;2960;49.142;7.768;2024-02-14T15:11:40;11.80;90.30
5868;DHT22;2960;49.142;7.768;2024-02-14T15:14:07;11.80;90.30
5868;DHT22;2960;49.142;7.768;2024-02-14T15:16:35;11.80;90.30
5868;DHT22;2960;49.142;7.768;2024-02-14T15:19:02;11.80;90.30
5868;DHT22;2960;49.142;7.768;2024-02-14T15:21:30;11.80;90.30
5868;DHT22;2960;49.142;7.768;2024-02-14T15:23:58;11.80;90.30
5868;DHT22;2960;49.142;7.768;2024-02-14T15:26:25;11.90;90.30
5868;DHT22;2960;49.142;7.768;2024-02-14T15:28:52;11.90;90.30
5868;DHT22;2960;49.142;7.768;2024-02-14T15:31:40;11.90;90.20
5868;DHT22;2960;49.142;7.768;2024-02-14T15:34:25;11.90;90.20
5868;DHT22;2960;49.142;7.768;2024-02-14T15:36:53;11.90;90.20
5868;DHT22;2960;49.142;7.768;2024-02-14T15:39:21;11.90;90.20
5868;DHT22;2960;49.142;7.768;2024-02-14T15:41:48;11.90;90.20
5868;DHT22;2960;49.142;7.768;2024-02-14T15:44:15;11.90;90.10
5868;DHT22;2960;49.142;7.768;2024-02-14T15:46:43;11.90;90.10
5868;DHT22;2960;49.142;7.768;2024-02-14T15:49:14;12.00;90.50
5868;DHT22;2960;49.142;7.768;2024-02-14T15:51:42;12.00;90.10
5868;DHT22;2960;49.142;7.768;2024-02-14T15:54:12;12.00;90.00
5868;DHT22;2960;49.142;7.768;2024-02-14T15:56:39;12.00;90.00
5868;DHT22;2960;49.142;7.768;2024-02-14T15:59:06;12.00;90.00
5868;DHT22;2960;49.142;7.768;2024-02-14T16:01:34;12.00;90.30
5868;DHT22;2960;49.142;7.768;2024-02-14T16:04:01;12.00;90.00
5868;DHT22;2960;49.142;7.768;2024-02-14T16:06:30;12.00;90.00
5868;DHT22;2960;49.142;7.768;2024-02-14T16:09:00;12.00;89.80
5868;DHT22;2960;49.142;7.768;2024-02-14T16:11:31;12.00;89.60
5868;DHT22;2960;49.142;7.768;2024-02-14T16:13:58;12.00;89.60
5868;DHT22;2960;49.142;7.768;2024-02-14T16:16:27;12.00;89.50
5868;DHT22;2960;49.142;7.768;2024-02-14T16:18:56;12.00;89.50